Time;durP1;ratioP1;P1;durP2;ratioP2;P2;SDS_P1;SDS_P2;PMS_P1;PMS_P2;Temp;Humidity;BMP_temperature;BMP_pressure;BME280_temperature;BME280_humidity;BME280_pressure;Samples;Min_cycle;Max_cycle;Signal;HPM_P1;HPM_P2
2022/09/20 00:01:19;;;;;;;5.97;2.50;;;12.20;90.50;;;;;;5042200;28;20417;-67
2022/09/20 00:03:48;;;;;;;4.68;2.08;;;12.10;90.60;;;;;;5047599;28;20432;-67
2022/09/20 00:06:17;;;;;;;5.85;2.63;;;12.10;90.80;;;;;;5048572;28;20448;-67
2022/09/20 00:08:44;;;;;;;3.97;2.10;;;12.00;90.80;;;;;;5041395;28;20882;-68
2022/09/20 00:11:15;;;;;;;5.40;2.23;;;12.00;90.90;;;;;;5046206;28;20425;-67
2022/09/20 00:13:43;;;;;;;4.50;2.45;;;12.00;91.10;;;;;;5038651;28;20435;-67
2022/09/20 00:16:13;;;;;;;5.88;2.50;;;11.90;91.10;;;;;;5046869;28;20441;-67
2022/09/20 00:18:40;;;;;;;4.20;2.30;;;11.90;91.30;;;;;;5046704;28;20428;-67
2022/09/20 00:21:07;;;;;;;4.77;2.60;;;11.90;91.40;;;;;;5045580;28;20540;-67
2022/09/20 00:23:35;;;;;;;6.47;2.30;;;11.80;91.50;;;;;;5044307;28;20446;-67
2022/09/20 00:26:03;;;;;;;5.15;2.70;;;11.80;91.60;;;;;;5043191;28;20442;-67
2022/09/20 00:28:32;;;;;;;5.85;2.72;;;11.80;91.80;;;;;;5048002;28;20432;-67
2022/09/20 00:30:59;;;;;;;5.20;2.50;;;11.80;91.90;;;;;;5042187;28;20437;-67
2022/09/20 00:35:06;;;;;;;6.05;2.67;;;11.70;92.00;;;;;;5047067;28;20433;-66
2022/09/20 00:36:13;;;;;;;4.45;2.22;;;11.70;92.00;;;;;;5048209;28;20441;-67
2022/09/20 00:38:39;;;;;;;4.88;2.30;;;11.70;92.10;;;;;;5046933;28;20938;-67
2022/09/20 00:41:07;;;;;;;7.53;2.40;;;11.80;92.10;;;;;;5046448;28;20797;-67
2022/09/20 00:43:40;;;;;;;7.47;2.80;;;11.80;92.20;;;;;;5046606;28;20685;-67
2022/09/20 00:46:17;;;;;;;5.05;2.70;;;11.80;92.10;;;;;;5047864;28;20440;-67
2022/09/20 00:48:44;;;;;;;4.07;2.85;;;11.80;92.00;;;;;;5044839;28;20447;-66
2022/09/20 00:51:15;;;;;;;5.70;2.80;;;11.80;92.10;;;;;;5038771;28;20431;-67
2022/09/20 00:53:46;;;;;;;6.13;3.10;;;11.80;92.10;;;;;;5040702;28;20437;-67
2022/09/20 00:56:17;;;;;;;6.38;3.00;;;11.80;92.20;;;;;;5044165;28;20912;-66
2022/09/20 00:58:50;;;;;;;4.68;2.67;;;11.90;92.00;;;;;;5039979;28;20429;-68
2022/09/20 01:01:18;;;;;;;5.85;3.08;;;11.90;92.00;;;;;;5038763;28;20443;-68
2022/09/20 01:03:45;;;;;;;4.63;2.80;;;11.90;92.00;;;;;;5038866;28;20438;-67
2022/09/20 01:06:15;;;;;;;5.50;3.20;;;11.90;92.10;;;;;;5033174;28;20442;-68
2022/09/20 01:08:46;;;;;;;7.07;3.20;;;11.90;92.10;;;;;;5047262;28;20436;-68
2022/09/20 01:11:13;;;;;;;5.55;3.40;;;11.90;92.30;;;;;;5042402;28;20429;-67
2022/09/20 01:13:40;;;;;;;5.47;3.10;;;11.80;92.20;;;;;;5045268;28;20542;-67
2022/09/20 01:16:09;;;;;;;5.93;3.10;;;11.90;92.20;;;;;;5047058;28;20429;-67
2022/09/20 01:18:37;;;;;;;6.13;3.20;;;11.90;92.30;;;;;;5042845;28;20435;-67
2022/09/20 01:21:06;;;;;;;7.90;4.03;;;11.90;92.30;;;;;;5046403;28;20433;-67
2022/09/20 01:23:48;;;;;;;6.20;3.30;;;11.90;92.20;;;;;;5045947;28;20954;-67
2022/09/20 01:26:49;;;;;;;4.60;3.50;;;11.90;92.20;;;;;;5046494;28;20457;-67
2022/09/20 01:29:31;;;;;;;4.95;3.20;;;11.90;92.20;;;;;;5043193;28;20440;-67
2022/09/20 01:32:00;;;;;;;5.53;3.60;;;11.90;92.40;;;;;;5042465;28;20787;-67
2022/09/20 01:34:33;;;;;;;5.65;3.35;;;11.90;92.40;;;;;;5046508;28;20456;-67
2022/09/20 01:37:06;;;;;;;6.93;3.83;;;11.90;92.50;;;;;;5047789;28;20428;-68
2022/09/20 01:39:42;;;;;;;5.80;3.63;;;11.90;92.40;;;;;;5045536;28;20421;-66
2022/09/20 01:42:12;;;;;;;6.83;3.77;;;11.90;92.50;;;;;;5045050;28;20436;-67
2022/09/20 01:44:48;;;;;;;5.00;3.60;;;11.90;92.40;;;;;;5046812;28;20502;-67
2022/09/20 01:47:26;;;;;;;5.18;3.67;;;11.90;92.40;;;;;;5045900;28;20428;-67
2022/09/20 01:50:03;;;;;;;6.10;4.30;;;11.90;92.40;;;;;;5043496;28;20452;-67
2022/09/20 01:52:48;;;;;;;6.20;3.80;;;11.90;92.50;;;;;;5038121;28;21283;-67
2022/09/20 01:55:46;;;;;;;6.30;3.93;;;11.90;92.50;;;;;;5043673;28;20445;-67
2022/09/20 01:58:42;;;;;;;8.63;4.40;;;12.00;92.40;;;;;;5040528;28;20432;-67
2022/09/20 02:01:47;;;;;;;5.68;4.05;;;12.00;92.40;;;;;;5044145;28;20433;-67
2022/09/20 02:04:42;;;;;;;6.28;4.57;;;12.00;92.50;;;;;;5047024;28;20417;-67
2022/09/20 02:07:25;;;;;;;6.30;4.13;;;12.00;92.50;;;;;;5046867;28;20768;-67
2022/09/20 02:10:09;;;;;;;4.90;3.90;;;12.00;92.50;;;;;;5046160;28;20432;-67
2022/09/20 02:12:52;;;;;;;5.00;4.20;;;12.00;92.60;;;;;;5034053;28;20438;-67
2022/09/20 02:15:46;;;;;;;6.38;4.07;;;11.90;92.60;;;;;;5045651;28;20770;-67
2022/09/20 02:18:32;;;;;;;6.22;3.97;;;11.90;92.60;;;;;;5045766;28;20441;-66
2022/09/20 02:21:05;;;;;;;5.95;4.00;;;11.90;92.70;;;;;;5037673;28;20429;-66
2022/09/20 02:23:44;;;;;;;5.93;4.18;;;11.90;92.80;;;;;;5045834;28;20432;-66
2022/09/20 02:26:36;;;;;;;7.78;4.10;;;11.90;92.90;;;;;;5047403;28;20965;-66
2022/09/20 02:29:16;;;;;;;8.93;4.22;;;11.90;92.90;;;;;;5043703;28;20429;-66
2022/09/20 02:32:00;;;;;;;7.88;4.40;;;11.90;92.80;;;;;;5043979;28;20433;-66
2022/09/20 02:35:04;;;;;;;6.80;4.60;;;11.90;92.70;;;;;;5043044;28;20433;-66
2022/09/20 02:38:11;;;;;;;8.05;4.88;;;11.90;92.70;;;;;;5043516;28;20472;-66
2022/09/20 02:40:56;;;;;;;7.75;4.30;;;11.90;92.90;;;;;;5044140;28;20967;-67
2022/09/20 02:43:30;;;;;;;6.50;4.60;;;11.90;92.90;;;;;;5037152;28;20446;-66
2022/09/20 02:46:03;;;;;;;7.10;3.90;;;11.90;92.90;;;;;;5038597;28;20417;-67
2022/09/20 02:48:38;;;;;;;6.55;4.28;;;11.90;92.80;;;;;;5044806;28;20425;-66
2022/09/20 02:51:13;;;;;;;6.03;3.95;;;12.00;92.90;;;;;;5046846;28;20451;-66
2022/09/20 02:53:47;;;;;;;5.38;4.00;;;12.00;92.90;;;;;;5042910;28;21141;-66
2022/09/20 02:56:28;;;;;;;6.07;3.75;;;11.90;92.90;;;;;;5048975;28;20925;-66
2022/09/20 02:59:01;;;;;;;5.30;4.40;;;11.90;92.90;;;;;;5040150;28;20440;-66
2022/09/20 03:01:38;;;;;;;9.10;4.10;;;11.90;93.20;;;;;;5049172;28;21101;-67
2022/09/20 03:04:25;;;;;;;7.18;3.97;;;11.90;93.00;;;;;;5042936;28;20436;-65
2022/09/20 03:07:00;;;;;;;6.13;3.95;;;11.90;93.00;;;;;;5048634;28;20433;-66
2022/09/20 03:09:34;;;;;;;6.00;4.00;;;11.90;92.90;;;;;;5048981;28;20436;-66
2022/09/20 03:12:12;;;;;;;6.28;3.83;;;11.90;93.30;;;;;;5049218;28;20437;-65
2022/09/20 03:14:46;;;;;;;5.32;3.67;;;11.90;93.30;;;;;;5047442;28;20439;-65
2022/09/20 03:17:21;;;;;;;6.20;4.00;;;11.90;93.30;;;;;;5049455;28;20441;-65
2022/09/20 03:19:58;;;;;;;5.78;3.88;;;11.80;93.50;;;;;;5048462;28;20433;-66
2022/09/20 03:22:38;;;;;;;5.32;3.92;;;11.80;93.50;;;;;;5047128;28;20448;-66
2022/09/20 03:25:27;;;;;;;5.07;3.70;;;11.80;93.50;;;;;;5049324;28;20440;-66
2022/09/20 03:28:03;;;;;;;6.00;3.80;;;11.80;93.60;;;;;;5043950;28;20936;-66
2022/09/20 03:30:44;;;;;;;7.63;4.90;;;11.80;93.70;;;;;;5048883;28;20429;-66
2022/09/20 03:33:16;;;;;;;9.13;5.05;;;11.80;93.80;;;;;;5064840;22;20564;-71
2022/09/20 03:36:00;;;;;;;10.40;6.80;;;11.80;94.00;;;;;;5044667;28;20508;-71
2022/09/20 03:38:46;;;;;;;7.40;4.40;;;11.80;93.90;;;;;;5045518;28;20503;-71
2022/09/20 03:41:49;;;;;;;7.00;3.92;;;11.90;93.70;;;;;;5046951;28;20425;-71
2022/09/20 03:44:30;;;;;;;8.70;4.30;;;11.90;93.20;;;;;;5026688;28;20435;-72
2022/09/20 03:47:06;;;;;;;5.10;3.40;;;11.90;93.10;;;;;;5026263;28;20439;-71
2022/09/20 03:49:53;;;;;;;5.05;3.80;;;11.90;93.10;;;;;;5016374;28;20825;-71
2022/09/20 03:52:41;;;;;;;5.70;4.00;;;11.90;93.20;;;;;;5020955;28;20996;-71
2022/09/20 03:55:31;;;;;;;9.57;5.30;;;11.80;93.30;;;;;;5024912;28;20886;-73
2022/09/20 03:58:15;;;;;;;7.13;5.10;;;11.90;93.50;;;;;;5024796;28;20801;-73
2022/09/20 04:00:59;;;;;;;5.95;3.97;;;11.80;93.50;;;;;;5019282;28;20424;-71
2022/09/20 04:03:35;;;;;;;6.90;3.40;;;11.80;93.40;;;;;;5024754;28;20442;-72
2022/09/20 04:06:18;;;;;;;6.82;3.50;;;11.80;93.40;;;;;;5026311;28;20523;-70
2022/09/20 04:09:14;;;;;;;8.97;3.60;;;11.90;92.70;;;;;;5013520;28;20796;-70
2022/09/20 04:11:50;;;;;;;5.80;2.88;;;11.90;92.60;;;;;;5022903;28;20524;-71
2022/09/20 04:14:25;;;;;;;7.47;3.75;;;11.90;92.50;;;;;;5018768;28;20436;-70
2022/09/20 04:16:58;;;;;;;5.88;2.80;;;11.90;92.60;;;;;;5019717;28;20431;-71
2022/09/20 04:19:30;;;;;;;7.30;3.53;;;11.90;92.80;;;;;;5017665;28;20442;-73
2022/09/20 04:21:59;;;;;;;6.30;3.30;;;11.80;92.90;;;;;;5022140;28;20470;-71
2022/09/20 04:24:35;;;;;;;6.18;3.15;;;11.80;93.10;;;;;;5022983;28;20939;-70
2022/09/20 04:27:09;;;;;;;6.50;3.03;;;11.90;93.00;;;;;;5025716;28;20892;-71
2022/09/20 04:29:43;;;;;;;5.50;2.80;;;11.90;92.20;;;;;;5017225;28;20785;-71
2022/09/20 04:32:16;;;;;;;5.38;3.20;;;11.90;92.10;;;;;;5021273;28;20886;-70
2022/09/20 04:37:33;;;;;;;7.45;2.78;;;11.90;92.50;;;;;;5025430;28;20883;-70
2022/09/20 04:40:14;;;;;;;6.68;2.70;;;11.90;92.50;;;;;;5021606;28;20431;-71
2022/09/20 04:43:17;;;;;;;7.32;3.45;;;11.90;92.40;;;;;;5018635;28;20589;-71
2022/09/20 04:46:39;;;;;;;5.32;3.45;;;11.90;92.50;;;;;;4969625;28;20458;-70
2022/09/20 04:49:41;;;;;;;5.80;2.90;;;11.90;92.60;;;;;;5018879;28;20514;-71
2022/09/20 04:52:53;;;;;;;7.22;3.08;;;11.90;92.10;;;;;;5021273;28;20854;-72
2022/09/20 04:55:48;;;;;;;5.28;2.50;;;12.00;92.00;;;;;;5026643;28;20518;-70
2022/09/20 04:58:46;;;;;;;6.93;3.15;;;12.00;92.00;;;;;;5023537;28;20926;-70
2022/09/20 05:01:48;;;;;;;7.55;3.20;;;11.90;91.90;;;;;;5029603;28;20413;-71
2022/09/20 05:04:55;;;;;;;6.20;2.70;;;12.00;92.00;;;;;;5024523;28;20510;-72
2022/09/20 05:07:50;;;;;;;6.68;3.60;;;11.90;91.90;;;;;;5031662;28;20427;-72
2022/09/20 05:10:47;;;;;;;5.38;2.92;;;11.90;92.00;;;;;;5029201;28;20753;-73
2022/09/20 05:13:26;;;;;;;7.65;3.15;;;11.90;92.00;;;;;;5036906;28;20915;-73
2022/09/20 05:16:01;;;;;;;5.47;2.65;;;11.90;92.00;;;;;;5014614;28;20422;-72
2022/09/20 05:19:02;;;;;;;6.10;2.93;;;11.90;92.10;;;;;;5025311;28;20885;-73
2022/09/20 05:21:54;;;;;;;7.23;3.63;;;11.80;92.10;;;;;;5026472;28;20423;-73
2022/09/20 05:24:32;;;;;;;6.78;4.00;;;11.80;92.20;;;;;;5021278;28;20443;-71
2022/09/20 05:27:13;;;;;;;9.18;3.90;;;11.80;92.20;;;;;;5022353;28;20439;-72
2022/09/20 05:29:50;;;;;;;6.10;3.90;;;11.80;92.40;;;;;;5018661;28;20881;-71
2022/09/20 05:32:26;;;;;;;7.67;4.70;;;11.80;92.60;;;;;;5033008;28;20431;-72
2022/09/20 05:34:59;;;;;;;6.32;4.00;;;11.80;92.60;;;;;;5034995;28;20450;-72
2022/09/20 05:37:37;;;;;;;12.18;5.28;;;11.80;92.50;;;;;;5043330;28;20405;-72
2022/09/20 05:40:15;;;;;;;7.78;4.80;;;11.80;92.60;;;;;;5012482;28;20418;-73
2022/09/20 05:42:49;;;;;;;9.85;5.28;;;11.80;92.60;;;;;;5024255;28;20553;-73
2022/09/20 05:45:36;;;;;;;5.65;4.70;;;11.90;92.70;;;;;;5026380;28;20439;-73
2022/09/20 05:48:13;;;;;;;6.88;4.82;;;11.90;92.70;;;;;;5027858;28;20428;-73
2022/09/20 05:50:47;;;;;;;9.02;5.03;;;11.90;92.70;;;;;;5018873;28;20465;-72
2022/09/20 05:53:58;;;;;;;8.88;5.90;;;12.00;92.60;;;;;;5024414;28;20939;-73
2022/09/20 05:56:41;;;;;;;7.93;5.50;;;12.00;92.30;;;;;;5023763;28;20419;-73
2022/09/20 05:59:28;;;;;;;7.15;5.70;;;12.00;92.40;;;;;;5025088;28;20419;-73
2022/09/20 06:02:09;;;;;;;9.10;6.68;;;11.90;92.40;;;;;;5024201;28;20434;-73
2022/09/20 06:04:46;;;;;;;8.68;6.60;;;12.00;92.40;;;;;;5017336;28;20422;-71
2022/09/20 06:07:21;;;;;;;11.90;6.55;;;12.00;92.40;;;;;;5028796;28;20413;-70
2022/09/20 06:10:15;;;;;;;8.13;6.20;;;12.00;92.50;;;;;;5030664;28;20462;-73
2022/09/20 06:12:52;;;;;;;8.45;6.80;;;12.00;92.50;;;;;;5024461;28;20419;-70
2022/09/20 06:15:26;;;;;;;9.15;6.30;;;12.00;92.50;;;;;;5024179;28;20442;-76
2022/09/20 06:17:59;;;;;;;11.15;6.78;;;12.00;92.50;;;;;;5015366;28;20435;-70
2022/09/20 06:20:35;;;;;;;9.55;6.82;;;12.10;92.50;;;;;;5024186;28;20422;-71
2022/09/20 06:23:05;;;;;;;8.68;7.70;;;12.10;92.20;;;;;;5023614;28;20434;-71
2022/09/20 06:25:39;;;;;;;8.98;7.57;;;12.10;92.00;;;;;;5027775;28;20419;-71
2022/09/20 06:28:13;;;;;;;9.48;6.80;;;12.10;91.90;;;;;;5016268;28;20499;-70
2022/09/20 06:30:44;;;;;;;9.13;7.20;;;12.10;91.90;;;;;;5031480;28;20427;-71
2022/09/20 06:33:16;;;;;;;10.05;6.80;;;12.10;92.00;;;;;;5026028;28;20494;-73
2022/09/20 06:35:51;;;;;;;9.30;6.95;;;12.10;92.00;;;;;;5027740;28;20421;-71
2022/09/20 06:41:33;;;;;;;9.85;6.97;;;12.20;91.90;;;;;;5025715;28;20965;-74
2022/09/20 06:44:02;;;;;;;7.97;6.22;;;12.20;92.10;;;;;;5028291;28;20411;-72
2022/09/20 06:46:30;;;;;;;8.55;6.43;;;12.20;91.90;;;;;;5028239;28;20507;-74
2022/09/20 06:48:57;;;;;;;10.02;6.40;;;12.20;91.50;;;;;;5027600;28;20449;-71
2022/09/20 06:51:28;;;;;;;10.88;7.82;;;12.20;91.50;;;;;;5027696;28;20904;-72
2022/09/20 06:53:56;;;;;;;11.27;7.72;;;12.10;91.80;;;;;;5038221;28;20424;-71
2022/09/20 06:56:26;;;;;;;10.57;7.70;;;12.10;91.90;;;;;;5031244;28;20431;-72
2022/09/20 06:58:53;;;;;;;10.95;7.13;;;12.10;91.90;;;;;;5028456;28;20434;-71
2022/09/20 07:01:20;;;;;;;9.02;7.53;;;12.20;91.90;;;;;;5028052;28;20588;-74
2022/09/20 07:03:47;;;;;;;9.23;7.20;;;12.30;92.10;;;;;;5030385;28;20964;-73
2022/09/20 07:06:15;;;;;;;8.30;6.63;;;12.30;92.00;;;;;;5028627;28;20423;-71
2022/09/20 07:08:43;;;;;;;8.90;6.50;;;12.40;91.70;;;;;;5028853;28;20457;-72
2022/09/20 07:11:14;;;;;;;8.70;6.20;;;12.50;91.70;;;;;;5027236;28;20457;-73
2022/09/20 07:13:41;;;;;;;9.50;7.40;;;12.70;91.40;;;;;;5028331;28;20450;-71
2022/09/20 07:16:11;;;;;;;9.65;6.28;;;12.90;90.70;;;;;;5039397;28;20426;-72
2022/09/20 07:18:39;;;;;;;8.05;5.80;;;13.00;90.30;;;;;;5027312;28;20508;-73
2022/09/20 07:21:06;;;;;;;7.68;5.45;;;13.20;88.90;;;;;;5027393;28;20415;-71
2022/09/20 07:23:33;;;;;;;8.63;5.25;;;13.30;88.50;;;;;;5031593;28;20423;-71
2022/09/20 07:26:01;;;;;;;10.43;5.30;;;13.40;88.50;;;;;;5025779;28;20445;-71
2022/09/20 07:28:28;;;;;;;7.43;4.90;;;13.50;88.30;;;;;;5034094;28;20440;-71
2022/09/20 07:30:54;;;;;;;7.20;5.13;;;13.60;87.90;;;;;;5032927;28;20891;-70
2022/09/20 07:33:23;;;;;;;6.75;4.40;;;13.80;85.90;;;;;;5034880;28;20438;-72
2022/09/20 07:35:51;;;;;;;5.05;4.50;;;14.00;85.40;;;;;;5023197;28;20434;-71
2022/09/20 07:38:18;;;;;;;6.93;4.70;;;14.20;83.50;;;;;;5028033;28;20418;-71
2022/09/20 07:40:45;;;;;;;6.65;4.15;;;14.50;83.10;;;;;;5027170;28;20913;-72
2022/09/20 07:43:13;;;;;;;6.10;3.90;;;14.70;82.20;;;;;;5027992;28;20454;-70
2022/09/20 07:45:40;;;;;;;5.53;3.90;;;14.90;80.00;;;;;;5030367;28;20427;-70
2022/09/20 07:48:08;;;;;;;6.93;4.75;;;15.10;79.70;;;;;;5025313;28;20435;-71
2022/09/20 07:50:35;;;;;;;5.80;4.05;;;15.20;77.70;;;;;;5024838;28;20510;-72
2022/09/20 07:53:03;;;;;;;4.70;3.63;;;15.30;76.60;;;;;;5026863;28;20411;-71
2022/09/20 07:55:30;;;;;;;5.43;3.30;;;15.40;76.50;;;;;;5027619;28;20841;-73
2022/09/20 07:57:57;;;;;;;5.97;3.80;;;15.40;75.50;;;;;;5027721;28;20481;-73
2022/09/20 08:00:25;;;;;;;7.40;3.60;;;15.50;74.60;;;;;;5026792;28;20415;-71
2022/09/20 08:02:59;;;;;;;4.82;2.78;;;15.60;75.20;;;;;;5025473;28;20892;-71
2022/09/20 08:05:25;;;;;;;4.82;2.90;;;15.80;74.60;;;;;;5025997;28;20475;-71
2022/09/20 08:07:53;;;;;;;7.45;2.90;;;16.00;74.30;;;;;;5031735;28;20422;-72
2022/09/20 08:10:19;;;;;;;4.82;3.00;;;16.20;73.60;;;;;;5028047;28;20431;-72
2022/09/20 08:12:46;;;;;;;4.53;2.50;;;16.30;72.30;;;;;;5025590;28;20427;-73
2022/09/20 08:15:13;;;;;;;4.20;2.70;;;16.30;71.70;;;;;;5026638;28;20473;-70
2022/09/20 08:17:41;;;;;;;4.70;2.30;;;16.30;70.50;;;;;;5026096;28;20544;-72
2022/09/20 08:20:09;;;;;;;4.50;2.35;;;16.40;69.80;;;;;;5028689;28;20418;-71
2022/09/20 08:22:37;;;;;;;6.05;2.80;;;16.60;68.50;;;;;;5039501;28;20408;-72
2022/09/20 08:25:05;;;;;;;4.30;2.50;;;16.70;69.60;;;;;;5044029;28;20422;-71
2022/09/20 08:27:32;;;;;;;4.40;2.10;;;16.70;66.50;;;;;;5029883;28;20751;-71
2022/09/20 08:29:59;;;;;;;3.40;2.00;;;16.60;67.90;;;;;;5036412;28;20440;-71
2022/09/20 08:32:26;;;;;;;5.03;2.10;;;16.50;68.80;;;;;;5045549;28;20435;-71
2022/09/20 08:34:54;;;;;;;4.40;2.20;;;16.80;68.50;;;;;;5031262;28;20418;-71
2022/09/20 08:37:21;;;;;;;3.13;2.00;;;17.20;66.90;;;;;;5032089;28;20419;-72
2022/09/20 08:39:48;;;;;;;4.28;2.40;;;17.40;63.90;;;;;;5030388;28;20921;-72
2022/09/20 08:42:23;;;;;;;5.13;2.40;;;17.30;63.80;;;;;;5024663;28;20446;-71
2022/09/20 08:44:55;;;;;;;4.47;2.15;;;17.20;64.00;;;;;;5020168;28;20431;-72
2022/09/20 08:47:26;;;;;;;6.70;2.03;;;17.20;65.00;;;;;;5025050;28;20434;-72
2022/09/20 08:49:55;;;;;;;4.60;2.10;;;17.50;64.90;;;;;;5026109;28;20430;-72
2022/09/20 08:52:29;;;;;;;5.68;1.80;;;17.80;62.50;;;;;;5024647;28;20437;-71
2022/09/20 08:54:58;;;;;;;3.85;1.90;;;18.20;61.90;;;;;;5013472;28;20492;-71
2022/09/20 08:57:28;;;;;;;4.72;1.80;;;18.40;61.00;;;;;;5026349;28;20423;-70
2022/09/20 08:59:55;;;;;;;4.57;1.50;;;18.50;59.50;;;;;;5025870;28;20481;-71
2022/09/20 09:02:22;;;;;;;4.68;1.75;;;18.40;57.80;;;;;;5025149;28;20885;-71
2022/09/20 09:04:52;;;;;;;5.45;1.70;;;18.20;58.10;;;;;;5025189;28;20438;-73
2022/09/20 09:07:22;;;;;;;4.28;1.65;;;17.90;57.80;;;;;;5039287;28;20443;-72
2022/09/20 09:09:52;;;;;;;3.65;1.50;;;17.70;60.20;;;;;;5026244;28;20418;-71
2022/09/20 09:12:24;;;;;;;2.90;1.33;;;17.50;60.70;;;;;;5029146;28;20493;-75
2022/09/20 09:14:53;;;;;;;4.85;2.10;;;17.30;61.50;;;;;;5033205;28;20446;-74
2022/09/20 09:17:23;;;;;;;3.97;2.45;;;17.10;61.90;;;;;;5027925;28;20417;-71
2022/09/20 09:19:52;;;;;;;5.75;2.08;;;17.00;61.40;;;;;;5024711;28;20431;-72
2022/09/20 09:22:29;;;;;;;4.63;1.90;;;16.80;63.80;;;;;;5025188;28;21169;-72
2022/09/20 09:25:27;;;;;;;5.43;1.90;;;16.70;64.40;;;;;;5026239;28;20708;-75
2022/09/20 09:27:56;;;;;;;4.30;1.80;;;16.60;64.40;;;;;;5018686;28;20502;-71
2022/09/20 09:30:27;;;;;;;5.30;2.00;;;16.60;64.80;;;;;;5025672;28;20426;-72
2022/09/20 09:33:14;;;;;;;4.28;1.80;;;16.50;63.50;;;;;;5057505;22;20442;-68
2022/09/20 09:35:41;;;;;;;5.18;1.80;;;16.50;64.90;;;;;;5035491;28;20426;-69
2022/09/20 09:38:18;;;;;;;5.20;2.00;;;16.50;64.40;;;;;;5044196;28;20425;-68
2022/09/20 09:40:51;;;;;;;6.38;1.67;;;16.50;63.10;;;;;;5057070;28;20435;-69
2022/09/20 09:43:22;;;;;;;5.80;2.00;;;16.50;63.10;;;;;;5050304;28;20460;-69
2022/09/20 09:45:49;;;;;;;4.47;1.80;;;16.50;62.90;;;;;;5046634;28;20425;-69
2022/09/20 09:48:22;;;;;;;4.10;1.83;;;16.40;62.10;;;;;;5037213;28;20425;-69
2022/09/20 09:50:49;;;;;;;3.60;1.53;;;16.30;63.30;;;;;;5045544;28;20465;-68
2022/09/20 09:53:21;;;;;;;4.85;2.17;;;16.20;64.50;;;;;;5043994;28;20421;-69
2022/09/20 09:56:03;;;;;;;4.25;1.70;;;16.20;63.50;;;;;;5047589;28;20429;-68
2022/09/20 09:58:42;;;;;;;2.80;1.70;;;16.10;63.20;;;;;;5047157;28;20425;-68
2022/09/20 10:01:20;;;;;;;4.97;1.90;;;16.00;62.50;;;;;;5046313;28;20500;-69
2022/09/20 10:03:56;;;;;;;4.88;1.85;;;15.90;63.80;;;;;;5046296;28;20437;-69
2022/09/20 10:06:30;;;;;;;6.88;1.70;;;15.90;64.80;;;;;;5042915;28;20421;-68
2022/09/20 10:09:10;;;;;;;5.13;2.08;;;15.90;62.50;;;;;;5047367;28;20417;-68
2022/09/20 10:11:57;;;;;;;3.78;1.58;;;15.80;63.50;;;;;;5046989;28;20429;-69
2022/09/20 10:14:38;;;;;;;3.20;1.40;;;15.70;62.80;;;;;;5047290;28;20512;-69
2022/09/20 10:17:22;;;;;;;4.50;1.60;;;15.60;62.80;;;;;;5046477;28;20449;-69
2022/09/20 10:20:26;;;;;;;5.07;1.60;;;15.50;63.00;;;;;;5040998;28;20508;-69
2022/09/20 10:23:02;;;;;;;5.47;2.05;;;15.50;64.00;;;;;;5035091;28;20416;-68
2022/09/20 10:25:39;;;;;;;6.63;1.70;;;15.40;64.70;;;;;;5047261;28;20409;-68
2022/09/20 10:28:21;;;;;;;5.35;2.13;;;15.30;65.40;;;;;;5047280;28;20417;-68
2022/09/20 10:31:00;;;;;;;4.85;1.90;;;15.30;65.60;;;;;;5046494;28;20429;-69
2022/09/20 10:33:34;;;;;;;2.58;1.45;;;15.40;65.80;;;;;;5045622;28;20436;-68
2022/09/20 10:36:12;;;;;;;4.60;1.50;;;15.40;64.10;;;;;;5039178;28;20434;-68
2022/09/20 10:38:45;;;;;;;4.78;1.60;;;15.50;64.20;;;;;;5057853;28;20922;-69
2022/09/20 10:44:38;;;;;;;5.35;1.50;;;15.70;63.20;;;;;;5037278;28;20423;-69
2022/09/20 10:47:13;;;;;;;5.00;1.65;;;15.90;62.60;;;;;;5043644;28;20434;-69
2022/09/20 10:49:43;;;;;;;4.10;1.30;;;16.00;61.30;;;;;;5036829;28;20433;-68
2022/09/20 10:52:20;;;;;;;4.10;1.57;;;16.20;60.20;;;;;;5043345;28;20915;-69
2022/09/20 10:55:03;;;;;;;4.13;1.20;;;16.30;60.50;;;;;;5046913;28;20413;-69
2022/09/20 10:58:04;;;;;;;3.60;1.13;;;16.40;58.50;;;;;;5062262;28;20411;-68
2022/09/20 11:00:42;;;;;;;2.70;0.90;;;16.50;53.70;;;;;;5057660;28;20437;-68
2022/09/20 11:03:23;;;;;;;3.08;1.05;;;16.50;55.60;;;;;;5035150;28;20436;-68
2022/09/20 11:06:00;;;;;;;4.05;1.80;;;16.60;56.10;;;;;;5047546;28;20420;-68
2022/09/20 11:08:32;;;;;;;4.63;1.40;;;16.60;56.10;;;;;;5047472;28;20413;-68
2022/09/20 11:11:05;;;;;;;2.88;1.35;;;16.60;57.60;;;;;;5047756;28;20425;-68
2022/09/20 11:13:39;;;;;;;3.25;1.35;;;16.50;58.70;;;;;;5050231;28;20447;-68
2022/09/20 11:16:12;;;;;;;4.20;1.23;;;16.50;59.00;;;;;;5041499;28;20433;-69
2022/09/20 11:18:45;;;;;;;4.60;1.60;;;16.40;59.00;;;;;;5034889;28;20419;-69
2022/09/20 11:21:21;;;;;;;3.33;1.48;;;16.30;55.40;;;;;;5049837;28;20417;-68
2022/09/20 11:23:54;;;;;;;3.78;1.38;;;16.20;57.60;;;;;;5050491;28;20413;-69
2022/09/20 11:26:28;;;;;;;3.85;1.80;;;16.00;58.90;;;;;;5050927;28;20508;-69
2022/09/20 11:29:01;;;;;;;3.50;1.40;;;15.90;60.60;;;;;;5049851;28;20429;-69
2022/09/20 11:31:33;;;;;;;5.18;1.50;;;15.80;62.20;;;;;;5042340;28;20433;-69
2022/09/20 11:34:07;;;;;;;4.47;1.90;;;15.70;60.90;;;;;;5036723;28;20442;-69
2022/09/20 11:36:39;;;;;;;3.67;1.80;;;15.70;61.90;;;;;;5046468;28;20417;-69
2022/09/20 11:39:14;;;;;;;3.05;1.30;;;15.70;61.40;;;;;;5050225;28;20421;-67
2022/09/20 11:41:41;;;;;;;3.75;1.67;;;15.60;63.30;;;;;;5049657;28;20421;-68
2022/09/20 11:44:12;;;;;;;3.40;1.45;;;15.40;64.70;;;;;;5046793;28;20437;-70
2022/09/20 11:46:46;;;;;;;4.47;1.80;;;15.40;66.70;;;;;;5036948;28;20431;-70
2022/09/20 11:49:18;;;;;;;4.15;1.60;;;15.40;68.80;;;;;;5044925;28;20992;-72
2022/09/20 11:52:13;;;;;;;3.92;1.67;;;15.30;68.40;;;;;;5045993;28;20452;-72
2022/09/20 11:55:05;;;;;;;3.08;1.55;;;15.30;71.20;;;;;;5049605;28;20417;-71
2022/09/20 11:57:32;;;;;;;2.63;1.30;;;15.10;67.00;;;;;;5062945;28;20809;-72
2022/09/20 12:00:03;;;;;;;4.38;1.63;;;15.00;67.50;;;;;;5049407;28;20429;-72
2022/09/20 12:02:35;;;;;;;2.47;1.30;;;14.90;70.70;;;;;;5049944;28;20414;-72
2022/09/20 12:05:05;;;;;;;3.35;1.20;;;14.80;72.40;;;;;;5050019;28;20717;-73
2022/09/20 12:07:35;;;;;;;4.53;1.60;;;14.80;69.80;;;;;;5049136;28;20783;-72
2022/09/20 12:10:07;;;;;;;4.13;1.50;;;14.70;71.00;;;;;;5049131;28;20993;-74
2022/09/20 12:12:40;;;;;;;3.50;1.50;;;14.70;69.90;;;;;;5048865;28;20451;-72
2022/09/20 12:15:24;;;;;;;4.60;2.40;;;14.70;69.60;;;;;;5048506;28;20810;-73
2022/09/20 12:18:35;;;;;;;2.63;1.55;;;14.80;68.60;;;;;;5049275;28;20424;-73
2022/09/20 12:21:06;;;;;;;4.18;2.00;;;14.80;67.60;;;;;;5048671;28;20827;-73
2022/09/20 12:24:09;;;;;;;3.78;1.60;;;14.90;68.30;;;;;;5057952;28;20425;-72
2022/09/20 12:26:47;;;;;;;3.93;1.60;;;15.00;67.50;;;;;;5048845;28;20986;-73
2022/09/20 12:29:53;;;;;;;2.90;1.60;;;15.00;69.10;;;;;;5058222;28;20999;-72
2022/09/20 12:32:48;;;;;;;2.90;1.60;;;15.10;69.90;;;;;;5061989;28;20811;-73
2022/09/20 12:35:54;;;;;;;2.50;1.50;;;15.30;70.10;;;;;;5047726;28;20831;-72
2022/09/20 12:38:36;;;;;;;2.40;1.50;;;15.50;67.90;;;;;;5040143;28;20437;-71
2022/09/20 12:41:10;;;;;;;4.30;1.20;;;15.90;64.60;;;;;;5046470;28;20436;-70
2022/09/20 12:43:46;;;;;;;2.42;1.25;;;16.30;64.20;;;;;;5031419;28;20489;-70
2022/09/20 12:46:21;;;;;;;1.67;0.90;;;17.20;61.40;;;;;;5033122;28;21069;-71
2022/09/20 12:48:50;;;;;;;3.25;1.08;;;18.50;58.30;;;;;;5041979;28;20897;-72
2022/09/20 12:54:12;;;;;;;2.15;1.02;;;20.50;51.30;;;;;;5048849;28;20420;-69
2022/09/20 12:56:43;;;;;;;3.10;1.00;;;20.40;47.50;;;;;;5048734;28;20504;-70
2022/09/20 12:59:21;;;;;;;2.40;0.70;;;20.20;47.80;;;;;;5047581;28;20487;-71
2022/09/20 13:01:48;;;;;;;2.00;0.70;;;19.90;47.80;;;;;;5047935;28;20451;-69
2022/09/20 13:05:00;;;;;;;2.00;0.60;;;19.70;48.70;;;;;;5048348;28;20475;-71
2022/09/20 13:07:40;;;;;;;3.10;0.80;;;19.50;48.20;;;;;;5019406;28;20944;-70
2022/09/20 13:10:20;;;;;;;3.13;1.00;;;19.70;49.60;;;;;;5048253;28;20417;-69
2022/09/20 13:12:49;;;;;;;2.05;0.70;;;20.10;49.90;;;;;;5048139;28;20440;-73
2022/09/20 13:15:20;;;;;;;2.28;0.70;;;20.40;48.30;;;;;;5047460;28;20427;-70
2022/09/20 13:17:50;;;;;;;2.63;0.65;;;20.30;48.40;;;;;;5048278;28;20429;-70
2022/09/20 13:20:21;;;;;;;2.35;0.93;;;19.70;49.20;;;;;;5047995;28;20421;-71
2022/09/20 13:22:52;;;;;;;3.97;0.93;;;19.30;50.70;;;;;;5047757;28;20413;-72
2022/09/20 13:25:21;;;;;;;2.80;0.80;;;18.90;50.80;;;;;;5060888;28;20425;-70
2022/09/20 13:27:52;;;;;;;2.53;1.25;;;18.60;53.30;;;;;;5047683;28;20514;-72
2022/09/20 13:30:22;;;;;;;3.00;1.50;;;18.20;53.40;;;;;;5047755;28;20417;-71
2022/09/20 13:32:50;;;;;;;3.15;1.92;;;18.00;55.10;;;;;;5046464;28;20946;-71
2022/09/20 13:35:18;;;;;;;2.88;1.10;;;18.00;56.00;;;;;;5047626;28;20436;-70
2022/09/20 13:37:54;;;;;;;3.20;1.00;;;18.30;54.90;;;;;;5046384;28;20477;-76
2022/09/20 13:40:23;;;;;;;4.07;1.40;;;18.30;54.20;;;;;;5042907;28;20434;-76
2022/09/20 13:42:52;;;;;;;3.40;1.30;;;18.20;53.40;;;;;;5042637;28;20426;-77
2022/09/20 13:45:20;;;;;;;2.90;1.60;;;18.10;53.00;;;;;;5042989;28;20429;-79